sensor_id;sensor_type;location;lat;lon;timestamp;P1;durP1;ratioP1;P2;durP2;ratioP2
29416;SDS011;28421;51.030;4.006;2023-11-18T00:00:31;7.80;;;5.75;;
29416;SDS011;28421;51.030;4.006;2023-11-18T00:02:57;11.75;;;6.80;;
29416;SDS011;28421;51.030;4.006;2023-11-18T00:05:22;14.40;;;7.60;;
29416;SDS011;28421;51.030;4.006;2023-11-18T00:07:49;10.98;;;6.45;;
29416;SDS011;28421;51.030;4.006;2023-11-18T00:10:15;6.97;;;5.20;;
29416;SDS011;28421;51.030;4.006;2023-11-18T00:12:40;9.80;;;6.63;;
29416;SDS011;28421;51.030;4.006;2023-11-18T00:15:07;9.13;;;5.72;;
29416;SDS011;28421;51.030;4.006;2023-11-18T00:17:37;10.38;;;7.03;;
29416;SDS011;28421;51.030;4.006;2023-11-18T00:20:03;10.30;;;6.70;;
29416;SDS011;28421;51.030;4.006;2023-11-18T00:22:34;10.25;;;7.35;;
29416;SDS011;28421;51.030;4.006;2023-11-18T00:25:02;5.75;;;4.55;;
29416;SDS011;28421;51.030;4.006;2023-11-18T00:27:33;9.77;;;6.70;;
29416;SDS011;28421;51.030;4.006;2023-11-18T00:30:01;7.82;;;5.78;;
29416;SDS011;28421;51.030;4.006;2023-11-18T00:32:30;7.88;;;6.55;;
29416;SDS011;28421;51.030;4.006;2023-11-18T00:34:57;6.43;;;5.05;;
29416;SDS011;28421;51.030;4.006;2023-11-18T00:37:22;7.80;;;5.50;;
29416;SDS011;28421;51.030;4.006;2023-11-18T00:39:48;9.95;;;6.63;;
29416;SDS011;28421;51.030;4.006;2023-11-18T00:42:13;6.53;;;5.40;;
29416;SDS011;28421;51.030;4.006;2023-11-18T00:44:38;7.65;;;6.63;;
29416;SDS011;28421;51.030;4.006;2023-11-18T00:47:04;8.38;;;5.60;;
29416;SDS011;28421;51.030;4.006;2023-11-18T00:49:30;6.68;;;5.10;;
29416;SDS011;28421;51.030;4.006;2023-11-18T00:51:55;10.25;;;6.40;;
29416;SDS011;28421;51.030;4.006;2023-11-18T00:54:20;11.38;;;6.55;;
29416;SDS011;28421;51.030;4.006;2023-11-18T00:56:47;5.75;;;4.85;;
29416;SDS011;28421;51.030;4.006;2023-11-18T00:59:12;5.63;;;4.72;;
29416;SDS011;28421;51.030;4.006;2023-11-18T01:01:38;7.85;;;4.95;;
29416;SDS011;28421;51.030;4.006;2023-11-18T01:04:03;7.35;;;5.50;;
29416;SDS011;28421;51.030;4.006;2023-11-18T01:06:30;9.68;;;5.75;;
29416;SDS011;28421;51.030;4.006;2023-11-18T01:08:57;8.93;;;5.35;;
29416;SDS011;28421;51.030;4.006;2023-11-18T01:11:23;6.38;;;5.05;;
29416;SDS011;28421;51.030;4.006;2023-11-18T01:13:49;6.75;;;4.90;;
29416;SDS011;28421;51.030;4.006;2023-11-18T01:16:15;17.25;;;6.63;;
29416;SDS011;28421;51.030;4.006;2023-11-18T01:18:41;8.63;;;5.55;;
29416;SDS011;28421;51.030;4.006;2023-11-18T01:21:07;8.10;;;5.20;;
29416;SDS011;28421;51.030;4.006;2023-11-18T01:23:36;13.02;;;5.85;;
29416;SDS011;28421;51.030;4.006;2023-11-18T01:26:05;21.85;;;6.88;;
29416;SDS011;28421;51.030;4.006;2023-11-18T01:28:33;7.32;;;4.72;;
29416;SDS011;28421;51.030;4.006;2023-11-18T01:31:05;7.85;;;5.20;;
29416;SDS011;28421;51.030;4.006;2023-11-18T01:33:35;8.63;;;5.93;;
29416;SDS011;28421;51.030;4.006;2023-11-18T01:36:07;5.72;;;5.15;;
29416;SDS011;28421;51.030;4.006;2023-11-18T01:38:35;9.77;;;6.38;;
29416;SDS011;28421;51.030;4.006;2023-11-18T01:41:03;8.88;;;6.18;;
29416;SDS011;28421;51.030;4.006;2023-11-18T01:43:32;13.13;;;6.72;;
29416;SDS011;28421;51.030;4.006;2023-11-18T01:46:01;6.65;;;5.72;;
29416;SDS011;28421;51.030;4.006;2023-11-18T01:48:29;9.73;;;5.82;;
29416;SDS011;28421;51.030;4.006;2023-11-18T01:50:58;13.13;;;4.65;;
29416;SDS011;28421;51.030;4.006;2023-11-18T01:53:24;9.55;;;6.25;;
29416;SDS011;28421;51.030;4.006;2023-11-18T01:55:49;9.70;;;5.05;;
29416;SDS011;28421;51.030;4.006;2023-11-18T01:58:15;6.85;;;4.80;;
29416;SDS011;28421;51.030;4.006;2023-11-18T02:00:45;8.07;;;5.47;;
29416;SDS011;28421;51.030;4.006;2023-11-18T02:03:14;10.88;;;6.70;;
29416;SDS011;28421;51.030;4.006;2023-11-18T02:05:40;7.35;;;5.00;;
29416;SDS011;28421;51.030;4.006;2023-11-18T02:08:07;15.05;;;6.30;;
29416;SDS011;28421;51.030;4.006;2023-11-18T02:10:34;9.65;;;5.38;;
29416;SDS011;28421;51.030;4.006;2023-11-18T02:13:12;5.90;;;4.38;;
29416;SDS011;28421;51.030;4.006;2023-11-18T02:15:41;8.80;;;5.47;;
29416;SDS011;28421;51.030;4.006;2023-11-18T02:18:08;8.35;;;4.93;;
29416;SDS011;28421;51.030;4.006;2023-11-18T02:20:37;5.10;;;4.60;;
29416;SDS011;28421;51.030;4.006;2023-11-18T02:23:04;9.57;;;4.80;;
29416;SDS011;28421;51.030;4.006;2023-11-18T02:25:32;7.57;;;5.45;;
29416;SDS011;28421;51.030;4.006;2023-11-18T02:27:59;11.55;;;4.93;;
29416;SDS011;28421;51.030;4.006;2023-11-18T02:30:25;5.68;;;3.97;;
29416;SDS011;28421;51.030;4.006;2023-11-18T02:32:58;7.53;;;5.00;;
29416;SDS011;28421;51.030;4.006;2023-11-18T02:35:38;9.55;;;5.63;;
29416;SDS011;28421;51.030;4.006;2023-11-18T02:38:13;8.40;;;5.43;;
29416;SDS011;28421;51.030;4.006;2023-11-18T02:40:43;9.05;;;4.78;;
29416;SDS011;28421;51.030;4.006;2023-11-18T02:43:10;8.38;;;4.97;;
29416;SDS011;28421;51.030;4.006;2023-11-18T02:45:36;6.15;;;4.43;;
29416;SDS011;28421;51.030;4.006;2023-11-18T02:48:03;6.03;;;5.32;;
29416;SDS011;28421;51.030;4.006;2023-11-18T02:50:31;5.93;;;4.32;;
29416;SDS011;28421;51.030;4.006;2023-11-18T02:52:57;8.52;;;4.60;;
29416;SDS011;28421;51.030;4.006;2023-11-18T02:55:23;7.78;;;4.57;;
29416;SDS011;28421;51.030;4.006;2023-11-18T02:57:50;5.85;;;4.13;;
29416;SDS011;28421;51.030;4.006;2023-11-18T03:00:17;7.50;;;3.60;;
29416;SDS011;28421;51.030;4.006;2023-11-18T03:02:49;7.63;;;3.72;;
29416;SDS011;28421;51.030;4.006;2023-11-18T03:05:17;7.88;;;4.38;;
29416;SDS011;28421;51.030;4.006;2023-11-18T03:07:43;3.55;;;3.28;;
29416;SDS011;28421;51.030;4.006;2023-11-18T03:10:14;4.28;;;3.33;;
29416;SDS011;28421;51.030;4.006;2023-11-18T03:12:49;6.30;;;3.88;;
29416;SDS011;28421;51.030;4.006;2023-11-18T03:15:16;6.28;;;3.72;;
29416;SDS011;28421;51.030;4.006;2023-11-18T03:17:43;9.77;;;3.15;;
29416;SDS011;28421;51.030;4.006;2023-11-18T03:20:10;7.43;;;3.92;;
29416;SDS011;28421;51.030;4.006;2023-11-18T03:22:40;6.70;;;4.30;;
29416;SDS011;28421;51.030;4.006;2023-11-18T03:25:06;13.20;;;3.83;;
29416;SDS011;28421;51.030;4.006;2023-11-18T03:27:33;6.88;;;3.90;;
29416;SDS011;28421;51.030;4.006;2023-11-18T03:29:58;4.15;;;3.50;;
29416;SDS011;28421;51.030;4.006;2023-11-18T03:32:24;4.68;;;3.10;;
29416;SDS011;28421;51.030;4.006;2023-11-18T03:34:49;12.93;;;3.55;;
29416;SDS011;28421;51.030;4.006;2023-11-18T03:37:15;12.32;;;3.53;;
29416;SDS011;28421;51.030;4.006;2023-11-18T03:39:40;5.55;;;3.35;;
29416;SDS011;28421;51.030;4.006;2023-11-18T03:42:06;9.00;;;4.40;;
29416;SDS011;28421;51.030;4.006;2023-11-18T03:44:31;5.93;;;3.15;;
29416;SDS011;28421;51.030;4.006;2023-11-18T03:46:57;5.80;;;3.67;;
29416;SDS011;28421;51.030;4.006;2023-11-18T03:49:22;3.58;;;2.92;;
29416;SDS011;28421;51.030;4.006;2023-11-18T03:51:48;4.60;;;3.88;;
29416;SDS011;28421;51.030;4.006;2023-11-18T03:54:14;3.20;;;2.30;;
29416;SDS011;28421;51.030;4.006;2023-11-18T03:56:39;5.63;;;4.20;;
29416;SDS011;28421;51.030;4.006;2023-11-18T03:59:05;4.90;;;3.03;;
29416;SDS011;28421;51.030;4.006;2023-11-18T04:01:30;6.45;;;3.05;;
29416;SDS011;28421;51.030;4.006;2023-11-18T04:03:57;3.95;;;3.08;;
29416;SDS011;28421;51.030;4.006;2023-11-18T04:06:23;4.47;;;2.83;;
29416;SDS011;28421;51.030;4.006;2023-11-18T04:08:49;3.10;;;2.58;;
29416;SDS011;28421;51.030;4.006;2023-11-18T04:11:15;3.78;;;2.47;;
29416;SDS011;28421;51.030;4.006;2023-11-18T04:13:41;4.55;;;3.22;;
29416;SDS011;28421;51.030;4.006;2023-11-18T04:16:13;8.82;;;3.20;;
29416;SDS011;28421;51.030;4.006;2023-11-18T04:18:44;1.95;;;1.58;;
29416;SDS011;28421;51.030;4.006;2023-11-18T04:21:11;3.50;;;2.25;;
29416;SDS011;28421;51.030;4.006;2023-11-18T04:23:41;3.13;;;2.78;;
29416;SDS011;28421;51.030;4.006;2023-11-18T04:26:08;2.45;;;2.25;;
29416;SDS011;28421;51.030;4.006;2023-11-18T04:28:34;5.72;;;3.03;;
29416;SDS011;28421;51.030;4.006;2023-11-18T04:31:02;4.25;;;3.85;;
29416;SDS011;28421;51.030;4.006;2023-11-18T04:33:28;12.57;;;3.70;;
29416;SDS011;28421;51.030;4.006;2023-11-18T04:35:54;5.75;;;2.75;;
29416;SDS011;28421;51.030;4.006;2023-11-18T04:38:22;12.40;;;4.22;;
29416;SDS011;28421;51.030;4.006;2023-11-18T04:40:48;4.20;;;2.90;;
29416;SDS011;28421;51.030;4.006;2023-11-18T04:43:14;5.55;;;3.08;;
29416;SDS011;28421;51.030;4.006;2023-11-18T04:45:40;3.80;;;2.38;;
29416;SDS011;28421;51.030;4.006;2023-11-18T04:48:07;3.50;;;2.78;;
29416;SDS011;28421;51.030;4.006;2023-11-18T04:50:33;6.60;;;2.85;;
29416;SDS011;28421;51.030;4.006;2023-11-18T04:52:58;3.17;;;1.67;;
29416;SDS011;28421;51.030;4.006;2023-11-18T04:55:24;7.70;;;3.72;;
29416;SDS011;28421;51.030;4.006;2023-11-18T04:57:52;18.90;;;2.85;;
29416;SDS011;28421;51.030;4.006;2023-11-18T05:00:18;6.47;;;3.03;;
29416;SDS011;28421;51.030;4.006;2023-11-18T05:02:45;3.00;;;2.45;;
29416;SDS011;28421;51.030;4.006;2023-11-18T05:05:14;3.60;;;2.85;;
29416;SDS011;28421;51.030;4.006;2023-11-18T05:07:41;6.63;;;2.85;;
29416;SDS011;28421;51.030;4.006;2023-11-18T05:10:07;3.80;;;1.90;;
29416;SDS011;28421;51.030;4.006;2023-11-18T05:12:35;10.82;;;3.35;;
29416;SDS011;28421;51.030;4.006;2023-11-18T05:15:01;10.60;;;2.92;;
29416;SDS011;28421;51.030;4.006;2023-11-18T05:17:28;10.90;;;4.18;;
29416;SDS011;28421;51.030;4.006;2023-11-18T05:19:55;6.65;;;3.05;;
29416;SDS011;28421;51.030;4.006;2023-11-18T05:22:20;3.85;;;2.47;;
29416;SDS011;28421;51.030;4.006;2023-11-18T05:24:46;8.70;;;3.28;;
29416;SDS011;28421;51.030;4.006;2023-11-18T05:27:13;9.70;;;3.58;;
29416;SDS011;28421;51.030;4.006;2023-11-18T05:29:39;4.65;;;2.55;;
29416;SDS011;28421;51.030;4.006;2023-11-18T05:32:06;1.75;;;1.65;;
29416;SDS011;28421;51.030;4.006;2023-11-18T05:34:33;5.72;;;3.35;;
29416;SDS011;28421;51.030;4.006;2023-11-18T05:37:00;7.15;;;2.35;;
29416;SDS011;28421;51.030;4.006;2023-11-18T05:39:26;4.47;;;1.85;;
29416;SDS011;28421;51.030;4.006;2023-11-18T05:41:56;6.30;;;2.55;;
29416;SDS011;28421;51.030;4.006;2023-11-18T05:44:23;4.85;;;3.67;;
29416;SDS011;28421;51.030;4.006;2023-11-18T05:46:58;6.13;;;2.65;;
29416;SDS011;28421;51.030;4.006;2023-11-18T05:49:23;13.52;;;3.15;;
29416;SDS011;28421;51.030;4.006;2023-11-18T05:51:49;8.75;;;2.00;;
29416;SDS011;28421;51.030;4.006;2023-11-18T05:54:15;2.85;;;1.95;;
29416;SDS011;28421;51.030;4.006;2023-11-18T05:56:41;9.10;;;2.67;;
29416;SDS011;28421;51.030;4.006;2023-11-18T05:59:06;3.83;;;2.38;;
29416;SDS011;28421;51.030;4.006;2023-11-18T06:01:33;6.80;;;1.60;;
29416;SDS011;28421;51.030;4.006;2023-11-18T06:03:59;8.35;;;2.92;;
29416;SDS011;28421;51.030;4.006;2023-11-18T06:06:25;8.35;;;2.63;;
29416;SDS011;28421;51.030;4.006;2023-11-18T06:08:51;11.85;;;2.58;;
29416;SDS011;28421;51.030;4.006;2023-11-18T06:11:18;5.68;;;2.20;;
29416;SDS011;28421;51.030;4.006;2023-11-18T06:13:45;3.42;;;1.98;;
29416;SDS011;28421;51.030;4.006;2023-11-18T06:16:15;2.72;;;1.95;;
29416;SDS011;28421;51.030;4.006;2023-11-18T06:18:44;3.25;;;2.47;;
29416;SDS011;28421;51.030;4.006;2023-11-18T06:21:10;4.53;;;2.10;;
29416;SDS011;28421;51.030;4.006;2023-11-18T06:23:36;1.02;;;1.02;;
29416;SDS011;28421;51.030;4.006;2023-11-18T06:26:02;5.72;;;2.58;;
29416;SDS011;28421;51.030;4.006;2023-11-18T06:28:27;3.03;;;2.08;;
29416;SDS011;28421;51.030;4.006;2023-11-18T06:30:53;5.68;;;2.63;;
29416;SDS011;28421;51.030;4.006;2023-11-18T06:33:18;5.25;;;1.80;;
29416;SDS011;28421;51.030;4.006;2023-11-18T06:35:48;8.00;;;2.75;;
29416;SDS011;28421;51.030;4.006;2023-11-18T06:38:13;1.67;;;1.58;;
29416;SDS011;28421;51.030;4.006;2023-11-18T06:40:40;2.92;;;1.75;;
29416;SDS011;28421;51.030;4.006;2023-11-18T06:43:05;10.45;;;3.05;;
29416;SDS011;28421;51.030;4.006;2023-11-18T06:45:36;6.32;;;2.60;;
29416;SDS011;28421;51.030;4.006;2023-11-18T06:48:05;5.85;;;1.85;;
29416;SDS011;28421;51.030;4.006;2023-11-18T06:50:31;2.22;;;1.40;;
29416;SDS011;28421;51.030;4.006;2023-11-18T06:52:57;6.97;;;2.67;;
29416;SDS011;28421;51.030;4.006;2023-11-18T06:55:24;2.42;;;1.67;;
29416;SDS011;28421;51.030;4.006;2023-11-18T06:57:51;4.97;;;1.60;;
29416;SDS011;28421;51.030;4.006;2023-11-18T07:00:17;7.13;;;1.85;;
29416;SDS011;28421;51.030;4.006;2023-11-18T07:02:43;3.75;;;1.77;;
29416;SDS011;28421;51.030;4.006;2023-11-18T07:05:09;6.95;;;2.90;;
29416;SDS011;28421;51.030;4.006;2023-11-18T07:07:34;10.43;;;2.03;;
29416;SDS011;28421;51.030;4.006;2023-11-18T07:10:00;5.47;;;3.22;;
29416;SDS011;28421;51.030;4.006;2023-11-18T07:12:25;4.97;;;2.63;;
29416;SDS011;28421;51.030;4.006;2023-11-18T07:14:51;13.55;;;2.90;;
29416;SDS011;28421;51.030;4.006;2023-11-18T07:17:16;6.18;;;2.85;;
29416;SDS011;28421;51.030;4.006;2023-11-18T07:19:44;7.15;;;3.03;;
29416;SDS011;28421;51.030;4.006;2023-11-18T07:22:10;7.78;;;2.38;;
29416;SDS011;28421;51.030;4.006;2023-11-18T07:24:35;5.97;;;2.50;;
29416;SDS011;28421;51.030;4.006;2023-11-18T07:27:01;3.38;;;1.95;;
29416;SDS011;28421;51.030;4.006;2023-11-18T07:29:26;11.32;;;2.95;;
29416;SDS011;28421;51.030;4.006;2023-11-18T07:31:52;5.68;;;2.90;;
29416;SDS011;28421;51.030;4.006;2023-11-18T07:34:21;4.25;;;1.67;;
29416;SDS011;28421;51.030;4.006;2023-11-18T07:36:48;9.10;;;2.80;;
29416;SDS011;28421;51.030;4.006;2023-11-18T07:39:15;9.05;;;3.22;;
29416;SDS011;28421;51.030;4.006;2023-11-18T07:41:43;9.20;;;2.50;;
29416;SDS011;28421;51.030;4.006;2023-11-18T07:44:09;6.05;;;2.50;;
29416;SDS011;28421;51.030;4.006;2023-11-18T07:46:37;4.22;;;2.55;;
29416;SDS011;28421;51.030;4.006;2023-11-18T07:49:03;2.15;;;1.95;;
29416;SDS011;28421;51.030;4.006;2023-11-18T07:51:29;3.53;;;2.30;;
29416;SDS011;28421;51.030;4.006;2023-11-18T07:53:55;7.50;;;3.25;;
29416;SDS011;28421;51.030;4.006;2023-11-18T07:56:20;5.95;;;2.78;;
29416;SDS011;28421;51.030;4.006;2023-11-18T07:58:49;7.15;;;2.25;;
29416;SDS011;28421;51.030;4.006;2023-11-18T08:01:15;4.60;;;3.45;;
29416;SDS011;28421;51.030;4.006;2023-11-18T08:03:43;8.15;;;2.33;;
29416;SDS011;28421;51.030;4.006;2023-11-18T08:06:12;2.85;;;1.90;;
29416;SDS011;28421;51.030;4.006;2023-11-18T08:08:38;3.92;;;2.35;;
29416;SDS011;28421;51.030;4.006;2023-11-18T08:11:08;6.40;;;2.50;;
29416;SDS011;28421;51.030;4.006;2023-11-18T08:13:35;5.07;;;2.80;;
29416;SDS011;28421;51.030;4.006;2023-11-18T08:16:01;3.35;;;2.88;;
29416;SDS011;28421;51.030;4.006;2023-11-18T08:18:27;5.05;;;2.33;;
29416;SDS011;28421;51.030;4.006;2023-11-18T08:20:56;6.50;;;2.55;;
29416;SDS011;28421;51.030;4.006;2023-11-18T08:23:23;5.47;;;3.65;;
29416;SDS011;28421;51.030;4.006;2023-11-18T08:25:48;6.50;;;2.80;;
29416;SDS011;28421;51.030;4.006;2023-11-18T08:28:15;3.42;;;2.50;;
29416;SDS011;28421;51.030;4.006;2023-11-18T08:30:41;3.03;;;2.72;;
29416;SDS011;28421;51.030;4.006;2023-11-18T08:33:06;4.82;;;3.05;;
29416;SDS011;28421;51.030;4.006;2023-11-18T08:35:34;8.90;;;2.60;;
29416;SDS011;28421;51.030;4.006;2023-11-18T08:38:00;3.63;;;2.45;;
29416;SDS011;28421;51.030;4.006;2023-11-18T08:40:26;11.95;;;2.38;;
29416;SDS011;28421;51.030;4.006;2023-11-18T08:42:53;4.72;;;3.45;;
29416;SDS011;28421;51.030;4.006;2023-11-18T08:45:27;7.85;;;3.55;;
29416;SDS011;28421;51.030;4.006;2023-11-18T08:47:57;8.65;;;2.88;;
29416;SDS011;28421;51.030;4.006;2023-11-18T08:50:25;3.63;;;2.47;;
29416;SDS011;28421;51.030;4.006;2023-11-18T08:52:51;8.48;;;3.92;;
29416;SDS011;28421;51.030;4.006;2023-11-18T08:55:23;11.20;;;3.35;;
29416;SDS011;28421;51.030;4.006;2023-11-18T08:58:03;7.47;;;3.45;;
29416;SDS011;28421;51.030;4.006;2023-11-18T09:00:41;4.25;;;2.83;;
29416;SDS011;28421;51.030;4.006;2023-11-18T09:03:23;5.35;;;2.67;;
29416;SDS011;28421;51.030;4.006;2023-11-18T09:06:02;7.57;;;3.22;;
29416;SDS011;28421;51.030;4.006;2023-11-18T09:11:05;4.85;;;3.13;;
29416;SDS011;28421;51.030;4.006;2023-11-18T09:13:33;3.80;;;2.55;;
29416;SDS011;28421;51.030;4.006;2023-11-18T09:16:04;10.68;;;2.53;;
29416;SDS011;28421;51.030;4.006;2023-11-18T09:18:37;8.02;;;2.72;;
29416;SDS011;28421;51.030;4.006;2023-11-18T09:21:04;4.00;;;2.67;;
29416;SDS011;28421;51.030;4.006;2023-11-18T09:23:31;4.28;;;3.05;;
29416;SDS011;28421;51.030;4.006;2023-11-18T09:25:59;5.35;;;3.17;;
29416;SDS011;28421;51.030;4.006;2023-11-18T09:28:26;5.68;;;3.25;;
29416;SDS011;28421;51.030;4.006;2023-11-18T09:30:56;4.20;;;2.65;;
29416;SDS011;28421;51.030;4.006;2023-11-18T09:33:23;3.92;;;2.70;;
29416;SDS011;28421;51.030;4.006;2023-11-18T09:35:54;3.67;;;2.67;;
29416;SDS011;28421;51.030;4.006;2023-11-18T09:38:24;2.97;;;2.45;;
29416;SDS011;28421;51.030;4.006;2023-11-18T09:40:52;2.78;;;2.40;;
29416;SDS011;28421;51.030;4.006;2023-11-18T09:43:18;5.85;;;2.83;;
29416;SDS011;28421;51.030;4.006;2023-11-18T09:45:45;3.92;;;2.55;;
29416;SDS011;28421;51.030;4.006;2023-11-18T09:48:14;2.35;;;2.15;;
29416;SDS011;28421;51.030;4.006;2023-11-18T09:50:45;3.08;;;2.28;;
29416;SDS011;28421;51.030;4.006;2023-11-18T09:53:14;2.53;;;2.33;;
29416;SDS011;28421;51.030;4.006;2023-11-18T09:55:56;3.17;;;1.98;;
29416;SDS011;28421;51.030;4.006;2023-11-18T09:58:30;4.22;;;3.25;;
29416;SDS011;28421;51.030;4.006;2023-11-18T10:01:06;4.32;;;3.10;;
29416;SDS011;28421;51.030;4.006;2023-11-18T10:03:32;3.08;;;2.65;;
29416;SDS011;28421;51.030;4.006;2023-11-18T10:06:02;4.07;;;3.10;;
29416;SDS011;28421;51.030;4.006;2023-11-18T10:08:30;4.40;;;2.75;;
29416;SDS011;28421;51.030;4.006;2023-11-18T10:10:56;7.55;;;2.70;;
29416;SDS011;28421;51.030;4.006;2023-11-18T10:13:31;9.05;;;3.63;;
29416;SDS011;28421;51.030;4.006;2023-11-18T10:16:01;8.35;;;2.95;;
29416;SDS011;28421;51.030;4.006;2023-11-18T10:18:30;4.93;;;3.20;;
29416;SDS011;28421;51.030;4.006;2023-11-18T10:21:00;2.70;;;2.47;;
29416;SDS011;28421;51.030;4.006;2023-11-18T10:23:26;5.15;;;3.00;;
29416;SDS011;28421;51.030;4.006;2023-11-18T10:25:53;3.58;;;2.70;;
29416;SDS011;28421;51.030;4.006;2023-11-18T10:28:25;4.65;;;2.38;;
29416;SDS011;28421;51.030;4.006;2023-11-18T10:31:02;7.22;;;2.50;;
29416;SDS011;28421;51.030;4.006;2023-11-18T10:33:33;6.68;;;2.83;;
29416;SDS011;28421;51.030;4.006;2023-11-18T10:36:01;3.53;;;3.22;;
29416;SDS011;28421;51.030;4.006;2023-11-18T10:38:30;4.80;;;2.85;;
29416;SDS011;28421;51.030;4.006;2023-11-18T10:40:58;2.50;;;2.30;;
29416;SDS011;28421;51.030;4.006;2023-11-18T10:43:27;6.32;;;2.70;;
29416;SDS011;28421;51.030;4.006;2023-11-18T10:46:05;1.80;;;1.42;;
29416;SDS011;28421;51.030;4.006;2023-11-18T10:48:47;3.17;;;1.75;;
29416;SDS011;28421;51.030;4.006;2023-11-18T10:51:14;5.03;;;2.53;;
29416;SDS011;28421;51.030;4.006;2023-11-18T10:53:46;2.53;;;2.05;;
29416;SDS011;28421;51.030;4.006;2023-11-18T10:56:19;2.25;;;2.05;;
29416;SDS011;28421;51.030;4.006;2023-11-18T10:58:50;1.92;;;1.83;;
29416;SDS011;28421;51.030;4.006;2023-11-18T11:01:16;3.47;;;1.90;;
29416;SDS011;28421;51.030;4.006;2023-11-18T11:03:53;3.63;;;2.45;;
29416;SDS011;28421;51.030;4.006;2023-11-18T11:06:23;3.38;;;1.88;;
29416;SDS011;28421;51.030;4.006;2023-11-18T11:08:49;7.07;;;2.15;;
29416;SDS011;28421;51.030;4.006;2023-11-18T11:11:18;2.72;;;2.40;;
29416;SDS011;28421;51.030;4.006;2023-11-18T11:13:47;2.53;;;2.33;;
29416;SDS011;28421;51.030;4.006;2023-11-18T11:16:16;1.90;;;1.73;;
29416;SDS011;28421;51.030;4.006;2023-11-18T11:18:47;3.30;;;1.85;;
29416;SDS011;28421;51.030;4.006;2023-11-18T11:21:18;1.90;;;1.75;;
29416;SDS011;28421;51.030;4.006;2023-11-18T11:24:06;2.28;;;1.88;;
29416;SDS011;28421;51.030;4.006;2023-11-18T11:26:45;6.22;;;2.80;;
29416;SDS011;28421;51.030;4.006;2023-11-18T11:32:35;3.08;;;1.90;;
29416;SDS011;28421;51.030;4.006;2023-11-18T11:35:07;2.35;;;1.77;;
29416;SDS011;28421;51.030;4.006;2023-11-18T11:37:44;6.07;;;1.55;;
29416;SDS011;28421;51.030;4.006;2023-11-18T11:40:10;1.63;;;1.52;;
29416;SDS011;28421;51.030;4.006;2023-11-18T11:42:38;1.65;;;1.55;;
29416;SDS011;28421;51.030;4.006;2023-11-18T11:45:05;1.52;;;1.42;;
29416;SDS011;28421;51.030;4.006;2023-11-18T11:47:45;1.85;;;1.40;;
29416;SDS011;28421;51.030;4.006;2023-11-18T11:50:23;3.25;;;1.65;;
29416;SDS011;28421;51.030;4.006;2023-11-18T11:52:59;3.20;;;1.90;;
29416;SDS011;28421;51.030;4.006;2023-11-18T11:55:41;1.67;;;1.58;;
29416;SDS011;28421;51.030;4.006;2023-11-18T11:58:29;3.10;;;1.83;;
29416;SDS011;28421;51.030;4.006;2023-11-18T12:01:01;1.35;;;0.95;;
29416;SDS011;28421;51.030;4.006;2023-11-18T12:03:40;5.03;;;1.48;;
29416;SDS011;28421;51.030;4.006;2023-11-18T12:06:08;1.00;;;1.00;;
29416;SDS011;28421;51.030;4.006;2023-11-18T12:08:41;4.03;;;1.60;;
29416;SDS011;28421;51.030;4.006;2023-11-18T12:11:09;1.17;;;1.08;;
29416;SDS011;28421;51.030;4.006;2023-11-18T12:13:37;4.05;;;1.48;;
29416;SDS011;28421;51.030;4.006;2023-11-18T12:16:05;0.80;;;0.80;;
29416;SDS011;28421;51.030;4.006;2023-11-18T12:18:35;2.75;;;0.95;;
29416;SDS011;28421;51.030;4.006;2023-11-18T12:21:04;1.30;;;1.13;;
29416;SDS011;28421;51.030;4.006;2023-11-18T12:23:30;1.08;;;0.93;;
29416;SDS011;28421;51.030;4.006;2023-11-18T12:25:59;0.95;;;0.95;;
29416;SDS011;28421;51.030;4.006;2023-11-18T12:28:28;5.18;;;1.10;;
29416;SDS011;28421;51.030;4.006;2023-11-18T12:31:10;2.28;;;1.67;;
29416;SDS011;28421;51.030;4.006;2023-11-18T12:41:42;1.02;;;1.02;;
29416;SDS011;28421;51.030;4.006;2023-11-18T12:49:18;1.10;;;1.08;;
29416;SDS011;28421;51.030;4.006;2023-11-18T12:51:49;1.10;;;1.10;;
29416;SDS011;28421;51.030;4.006;2023-11-18T12:54:16;0.95;;;0.90;;
29416;SDS011;28421;51.030;4.006;2023-11-18T12:56:43;3.40;;;1.23;;
29416;SDS011;28421;51.030;4.006;2023-11-18T12:59:12;0.60;;;0.60;;
29416;SDS011;28421;51.030;4.006;2023-11-18T13:01:38;0.75;;;0.75;;
29416;SDS011;28421;51.030;4.006;2023-11-18T13:04:07;0.82;;;0.63;;
29416;SDS011;28421;51.030;4.006;2023-11-18T13:06:34;1.10;;;0.55;;
29416;SDS011;28421;51.030;4.006;2023-11-18T13:09:00;1.13;;;1.02;;
29416;SDS011;28421;51.030;4.006;2023-11-18T13:11:31;2.15;;;1.08;;
29416;SDS011;28421;51.030;4.006;2023-11-18T13:13:58;1.10;;;1.00;;
29416;SDS011;28421;51.030;4.006;2023-11-18T13:16:24;0.70;;;0.70;;
29416;SDS011;28421;51.030;4.006;2023-11-18T13:18:50;1.13;;;1.05;;
29416;SDS011;28421;51.030;4.006;2023-11-18T13:21:20;0.90;;;0.90;;
29416;SDS011;28421;51.030;4.006;2023-11-18T13:23:48;1.75;;;1.08;;
29416;SDS011;28421;51.030;4.006;2023-11-18T13:26:15;0.60;;;0.60;;
29416;SDS011;28421;51.030;4.006;2023-11-18T13:28:41;0.57;;;0.57;;
29416;SDS011;28421;51.030;4.006;2023-11-18T13:31:09;0.82;;;0.77;;
29416;SDS011;28421;51.030;4.006;2023-11-18T13:33:41;2.63;;;1.15;;
29416;SDS011;28421;51.030;4.006;2023-11-18T13:36:07;1.27;;;1.27;;
29416;SDS011;28421;51.030;4.006;2023-11-18T13:38:37;0.68;;;0.68;;
29416;SDS011;28421;51.030;4.006;2023-11-18T13:41:03;0.77;;;0.77;;
29416;SDS011;28421;51.030;4.006;2023-11-18T13:43:40;1.23;;;1.17;;
29416;SDS011;28421;51.030;4.006;2023-11-18T13:46:17;2.63;;;1.48;;
29416;SDS011;28421;51.030;4.006;2023-11-18T13:48:47;0.70;;;0.70;;
29416;SDS011;28421;51.030;4.006;2023-11-18T13:51:14;1.20;;;1.08;;
29416;SDS011;28421;51.030;4.006;2023-11-18T13:53:41;0.80;;;0.80;;
29416;SDS011;28421;51.030;4.006;2023-11-18T13:56:09;2.50;;;1.48;;
29416;SDS011;28421;51.030;4.006;2023-11-18T13:58:35;1.38;;;0.93;;
29416;SDS011;28421;51.030;4.006;2023-11-18T14:01:07;2.03;;;1.20;;
29416;SDS011;28421;51.030;4.006;2023-11-18T14:03:36;1.42;;;1.10;;
29416;SDS011;28421;51.030;4.006;2023-11-18T14:06:02;2.03;;;1.30;;
29416;SDS011;28421;51.030;4.006;2023-11-18T14:08:30;2.80;;;1.25;;
29416;SDS011;28421;51.030;4.006;2023-11-18T14:10:56;2.72;;;1.00;;
29416;SDS011;28421;51.030;4.006;2023-11-18T14:13:21;0.95;;;0.93;;
29416;SDS011;28421;51.030;4.006;2023-11-18T14:15:47;2.00;;;1.80;;
29416;SDS011;28421;51.030;4.006;2023-11-18T14:18:13;2.13;;;1.65;;
29416;SDS011;28421;51.030;4.006;2023-11-18T14:20:39;1.65;;;1.25;;
29416;SDS011;28421;51.030;4.006;2023-11-18T14:23:04;0.90;;;0.90;;
29416;SDS011;28421;51.030;4.006;2023-11-18T14:25:30;0.90;;;0.90;;
29416;SDS011;28421;51.030;4.006;2023-11-18T14:27:57;0.82;;;0.82;;
29416;SDS011;28421;51.030;4.006;2023-11-18T14:30:23;0.88;;;0.88;;
29416;SDS011;28421;51.030;4.006;2023-11-18T14:32:53;0.80;;;0.80;;
29416;SDS011;28421;51.030;4.006;2023-11-18T14:35:19;0.60;;;0.60;;
29416;SDS011;28421;51.030;4.006;2023-11-18T14:37:45;0.93;;;0.93;;
29416;SDS011;28421;51.030;4.006;2023-11-18T14:40:14;0.80;;;0.80;;
29416;SDS011;28421;51.030;4.006;2023-11-18T14:42:47;1.15;;;0.80;;
29416;SDS011;28421;51.030;4.006;2023-11-18T14:45:16;0.50;;;0.50;;
29416;SDS011;28421;51.030;4.006;2023-11-18T14:47:42;0.77;;;0.77;;
29416;SDS011;28421;51.030;4.006;2023-11-18T14:50:20;0.80;;;0.80;;
29416;SDS011;28421;51.030;4.006;2023-11-18T14:52:46;0.45;;;0.45;;
29416;SDS011;28421;51.030;4.006;2023-11-18T14:55:14;0.90;;;0.90;;
29416;SDS011;28421;51.030;4.006;2023-11-18T14:57:42;0.70;;;0.70;;
29416;SDS011;28421;51.030;4.006;2023-11-18T15:00:09;0.63;;;0.63;;
29416;SDS011;28421;51.030;4.006;2023-11-18T15:02:50;0.82;;;0.82;;
29416;SDS011;28421;51.030;4.006;2023-11-18T15:05:17;0.60;;;0.60;;
29416;SDS011;28421;51.030;4.006;2023-11-18T15:07:44;0.77;;;0.77;;
29416;SDS011;28421;51.030;4.006;2023-11-18T15:10:17;0.73;;;0.73;;